sensor_id;sensor_type;location;lat;lon;timestamp;P1;durP1;ratioP1;P2;durP2;ratioP2
4794;SDS011;2411;47.060;15.064;2022-10-23T00:01:26;1.20;;;0.90;;
4794;SDS011;2411;47.060;15.064;2022-10-23T00:04:03;3.80;;;0.80;;
4794;SDS011;2411;47.060;15.064;2022-10-23T00:06:38;0.50;;;0.50;;
4794;SDS011;2411;47.060;15.064;2022-10-23T00:09:06;0.83;;;0.83;;
4794;SDS011;2411;47.060;15.064;2022-10-23T00:11:34;0.80;;;0.80;;
4794;SDS011;2411;47.060;15.064;2022-10-23T00:14:03;1.93;;;0.77;;
4794;SDS011;2411;47.060;15.064;2022-10-23T00:16:32;1.83;;;0.60;;
4794;SDS011;2411;47.060;15.064;2022-10-23T00:19:00;0.60;;;0.60;;
4794;SDS011;2411;47.060;15.064;2022-10-23T00:21:27;1.37;;;0.60;;
4794;SDS011;2411;47.060;15.064;2022-10-23T00:23:54;0.70;;;0.70;;
4794;SDS011;2411;47.060;15.064;2022-10-23T00:26:22;3.13;;;0.60;;
4794;SDS011;2411;47.060;15.064;2022-10-23T00:28:50;0.90;;;0.80;;
4794;SDS011;2411;47.060;15.064;2022-10-23T00:31:19;2.50;;;0.87;;
4794;SDS011;2411;47.060;15.064;2022-10-23T00:33:48;0.70;;;0.70;;
4794;SDS011;2411;47.060;15.064;2022-10-23T00:36:17;0.60;;;0.60;;
4794;SDS011;2411;47.060;15.064;2022-10-23T00:38:46;0.60;;;0.60;;
4794;SDS011;2411;47.060;15.064;2022-10-23T00:41:48;0.60;;;0.60;;
4794;SDS011;2411;47.060;15.064;2022-10-23T00:44:09;0.60;;;0.60;;
4794;SDS011;2411;47.060;15.064;2022-10-23T00:46:37;2.10;;;0.70;;
4794;SDS011;2411;47.060;15.064;2022-10-23T00:49:05;0.60;;;0.60;;
4794;SDS011;2411;47.060;15.064;2022-10-23T00:51:39;3.50;;;0.60;;
4794;SDS011;2411;47.060;15.064;2022-10-23T00:54:13;1.87;;;0.77;;
4794;SDS011;2411;47.060;15.064;2022-10-23T00:56:56;1.83;;;0.60;;
4794;SDS011;2411;47.060;15.064;2022-10-23T00:59:25;2.10;;;0.80;;
4794;SDS011;2411;47.060;15.064;2022-10-23T01:01:53;0.90;;;0.50;;
4794;SDS011;2411;47.060;15.064;2022-10-23T01:04:21;1.73;;;0.93;;
4794;SDS011;2411;47.060;15.064;2022-10-23T01:15:21;2.00;;;0.50;;
4794;SDS011;2411;47.060;15.064;2022-10-23T01:18:26;1.70;;;0.50;;
4794;SDS011;2411;47.060;15.064;2022-10-23T01:22:12;0.50;;;0.50;;
4794;SDS011;2411;47.060;15.064;2022-10-23T01:29:41;1.63;;;0.60;;
4794;SDS011;2411;47.060;15.064;2022-10-23T01:37:34;5.50;;;0.70;;
4794;SDS011;2411;47.060;15.064;2022-10-23T01:40:11;38.33;;;3.37;;
4794;SDS011;2411;47.060;15.064;2022-10-23T01:42:49;12.23;;;0.90;;
4794;SDS011;2411;47.060;15.064;2022-10-23T01:45:22;0.63;;;0.60;;
4794;SDS011;2411;47.060;15.064;2022-10-23T01:48:11;1.60;;;0.60;;
4794;SDS011;2411;47.060;15.064;2022-10-23T01:50:42;0.63;;;0.63;;
4794;SDS011;2411;47.060;15.064;2022-10-23T01:53:11;0.60;;;0.60;;
4794;SDS011;2411;47.060;15.064;2022-10-23T01:55:39;1.43;;;0.60;;
4794;SDS011;2411;47.060;15.064;2022-10-23T01:58:12;0.63;;;0.63;;
4794;SDS011;2411;47.060;15.064;2022-10-23T02:00:41;0.60;;;0.50;;
4794;SDS011;2411;47.060;15.064;2022-10-23T02:03:11;0.53;;;0.53;;
4794;SDS011;2411;47.060;15.064;2022-10-23T02:05:41;0.60;;;0.60;;
4794;SDS011;2411;47.060;15.064;2022-10-23T02:08:09;0.90;;;0.50;;
4794;SDS011;2411;47.060;15.064;2022-10-23T02:10:59;1.77;;;0.60;;
4794;SDS011;2411;47.060;15.064;2022-10-23T02:16:19;0.80;;;0.60;;
4794;SDS011;2411;47.060;15.064;2022-10-23T02:22:09;0.50;;;0.50;;
4794;SDS011;2411;47.060;15.064;2022-10-23T02:24:52;1.10;;;0.60;;
4794;SDS011;2411;47.060;15.064;2022-10-23T02:27:33;1.03;;;0.50;;
4794;SDS011;2411;47.060;15.064;2022-10-23T02:30:04;2.20;;;1.43;;
4794;SDS011;2411;47.060;15.064;2022-10-23T02:32:38;0.60;;;0.60;;
4794;SDS011;2411;47.060;15.064;2022-10-23T02:35:10;2.40;;;0.60;;
4794;SDS011;2411;47.060;15.064;2022-10-23T02:37:38;0.53;;;0.53;;
4794;SDS011;2411;47.060;15.064;2022-10-23T02:40:06;5.00;;;0.93;;
4794;SDS011;2411;47.060;15.064;2022-10-23T02:42:37;0.50;;;0.50;;
4794;SDS011;2411;47.060;15.064;2022-10-23T02:48:25;0.87;;;0.70;;
4794;SDS011;2411;47.060;15.064;2022-10-23T02:51:06;0.77;;;0.57;;
4794;SDS011;2411;47.060;15.064;2022-10-23T03:01:46;2.30;;;0.53;;
4794;SDS011;2411;47.060;15.064;2022-10-23T03:04:21;0.70;;;0.70;;
4794;SDS011;2411;47.060;15.064;2022-10-23T03:06:50;0.70;;;0.70;;
4794;SDS011;2411;47.060;15.064;2022-10-23T03:09:17;0.90;;;0.53;;
4794;SDS011;2411;47.060;15.064;2022-10-23T03:11:45;0.60;;;0.60;;
4794;SDS011;2411;47.060;15.064;2022-10-23T03:14:12;2.07;;;0.73;;
4794;SDS011;2411;47.060;15.064;2022-10-23T03:16:39;0.93;;;0.50;;
4794;SDS011;2411;47.060;15.064;2022-10-23T03:19:06;0.60;;;0.60;;
4794;SDS011;2411;47.060;15.064;2022-10-23T03:21:34;0.57;;;0.57;;
4794;SDS011;2411;47.060;15.064;2022-10-23T03:24:01;0.70;;;0.70;;
4794;SDS011;2411;47.060;15.064;2022-10-23T03:26:28;0.70;;;0.50;;
4794;SDS011;2411;47.060;15.064;2022-10-23T03:28:55;0.53;;;0.50;;
4794;SDS011;2411;47.060;15.064;2022-10-23T03:31:22;0.50;;;0.50;;
4794;SDS011;2411;47.060;15.064;2022-10-23T03:33:50;1.90;;;0.70;;
4794;SDS011;2411;47.060;15.064;2022-10-23T03:36:17;0.70;;;0.70;;
4794;SDS011;2411;47.060;15.064;2022-10-23T03:38:44;0.57;;;0.57;;
4794;SDS011;2411;47.060;15.064;2022-10-23T03:41:11;1.07;;;0.70;;
4794;SDS011;2411;47.060;15.064;2022-10-23T03:43:38;0.73;;;0.60;;
4794;SDS011;2411;47.060;15.064;2022-10-23T03:46:05;0.60;;;0.60;;
4794;SDS011;2411;47.060;15.064;2022-10-23T03:48:35;0.77;;;0.77;;
4794;SDS011;2411;47.060;15.064;2022-10-23T03:51:04;0.90;;;0.60;;
4794;SDS011;2411;47.060;15.064;2022-10-23T03:53:31;3.13;;;1.00;;
4794;SDS011;2411;47.060;15.064;2022-10-23T03:55:59;1.13;;;0.60;;
4794;SDS011;2411;47.060;15.064;2022-10-23T03:58:27;0.50;;;0.50;;
4794;SDS011;2411;47.060;15.064;2022-10-23T04:00:54;1.43;;;0.60;;
4794;SDS011;2411;47.060;15.064;2022-10-23T04:03:22;0.50;;;0.50;;
4794;SDS011;2411;47.060;15.064;2022-10-23T04:05:49;0.63;;;0.60;;
4794;SDS011;2411;47.060;15.064;2022-10-23T04:08:18;0.50;;;0.50;;
4794;SDS011;2411;47.060;15.064;2022-10-23T04:10:45;0.50;;;0.50;;
4794;SDS011;2411;47.060;15.064;2022-10-23T04:13:13;1.90;;;0.60;;
4794;SDS011;2411;47.060;15.064;2022-10-23T04:15:40;0.50;;;0.50;;
4794;SDS011;2411;47.060;15.064;2022-10-23T04:18:14;0.60;;;0.60;;
4794;SDS011;2411;47.060;15.064;2022-10-23T04:20:41;0.60;;;0.50;;
4794;SDS011;2411;47.060;15.064;2022-10-23T04:23:09;0.57;;;0.57;;
4794;SDS011;2411;47.060;15.064;2022-10-23T04:25:36;0.50;;;0.50;;
4794;SDS011;2411;47.060;15.064;2022-10-23T04:28:03;0.60;;;0.60;;
4794;SDS011;2411;47.060;15.064;2022-10-23T04:30:30;0.70;;;0.70;;
4794;SDS011;2411;47.060;15.064;2022-10-23T04:32:58;0.90;;;0.50;;
4794;SDS011;2411;47.060;15.064;2022-10-23T04:35:25;1.00;;;1.00;;
4794;SDS011;2411;47.060;15.064;2022-10-23T04:37:52;0.57;;;0.57;;
4794;SDS011;2411;47.060;15.064;2022-10-23T04:40:20;0.60;;;0.60;;
4794;SDS011;2411;47.060;15.064;2022-10-23T04:42:47;3.40;;;0.40;;
4794;SDS011;2411;47.060;15.064;2022-10-23T04:45:14;12.30;;;1.00;;
4794;SDS011;2411;47.060;15.064;2022-10-23T04:47:41;0.50;;;0.50;;
4794;SDS011;2411;47.060;15.064;2022-10-23T04:50:08;2.10;;;0.47;;
4794;SDS011;2411;47.060;15.064;2022-10-23T04:52:35;0.60;;;0.60;;
4794;SDS011;2411;47.060;15.064;2022-10-23T04:55:03;0.70;;;0.70;;
4794;SDS011;2411;47.060;15.064;2022-10-23T04:57:44;0.60;;;0.60;;
4794;SDS011;2411;47.060;15.064;2022-10-23T05:00:12;2.40;;;0.70;;
4794;SDS011;2411;47.060;15.064;2022-10-23T05:02:41;0.80;;;0.60;;
4794;SDS011;2411;47.060;15.064;2022-10-23T05:05:09;0.60;;;0.60;;
4794;SDS011;2411;47.060;15.064;2022-10-23T05:07:42;0.83;;;0.83;;
4794;SDS011;2411;47.060;15.064;2022-10-23T05:10:10;1.47;;;0.87;;
4794;SDS011;2411;47.060;15.064;2022-10-23T05:12:43;2.00;;;0.60;;
4794;SDS011;2411;47.060;15.064;2022-10-23T05:15:10;0.70;;;0.70;;
4794;SDS011;2411;47.060;15.064;2022-10-23T05:17:38;0.87;;;0.87;;
4794;SDS011;2411;47.060;15.064;2022-10-23T05:20:09;0.70;;;0.70;;
4794;SDS011;2411;47.060;15.064;2022-10-23T05:22:41;1.83;;;0.80;;
4794;SDS011;2411;47.060;15.064;2022-10-23T05:25:11;1.53;;;1.43;;
4794;SDS011;2411;47.060;15.064;2022-10-23T05:27:38;0.50;;;0.50;;
4794;SDS011;2411;47.060;15.064;2022-10-23T05:30:06;0.60;;;0.60;;
4794;SDS011;2411;47.060;15.064;2022-10-23T05:32:34;3.03;;;0.90;;
4794;SDS011;2411;47.060;15.064;2022-10-23T05:35:06;0.60;;;0.60;;
4794;SDS011;2411;47.060;15.064;2022-10-23T05:37:37;5.10;;;0.90;;
4794;SDS011;2411;47.060;15.064;2022-10-23T05:40:09;1.27;;;1.00;;
4794;SDS011;2411;47.060;15.064;2022-10-23T05:42:37;3.30;;;1.50;;
4794;SDS011;2411;47.060;15.064;2022-10-23T05:45:07;1.90;;;1.80;;
4794;SDS011;2411;47.060;15.064;2022-10-23T05:47:35;1.83;;;1.80;;
4794;SDS011;2411;47.060;15.064;2022-10-23T05:50:02;1.37;;;1.37;;
4794;SDS011;2411;47.060;15.064;2022-10-23T05:52:30;7.03;;;1.10;;
4794;SDS011;2411;47.060;15.064;2022-10-23T05:54:57;1.63;;;1.07;;
4794;SDS011;2411;47.060;15.064;2022-10-23T05:57:24;1.40;;;0.80;;
4794;SDS011;2411;47.060;15.064;2022-10-23T05:59:51;14.03;;;2.50;;
4794;SDS011;2411;47.060;15.064;2022-10-23T06:02:18;1.30;;;1.20;;
4794;SDS011;2411;47.060;15.064;2022-10-23T06:04:46;2.83;;;1.10;;
4794;SDS011;2411;47.060;15.064;2022-10-23T06:07:13;1.80;;;1.50;;
4794;SDS011;2411;47.060;15.064;2022-10-23T06:09:40;1.80;;;1.70;;
4794;SDS011;2411;47.060;15.064;2022-10-23T06:12:07;2.03;;;1.50;;
4794;SDS011;2411;47.060;15.064;2022-10-23T06:14:35;8.03;;;1.37;;
4794;SDS011;2411;47.060;15.064;2022-10-23T06:17:02;1.40;;;1.40;;
4794;SDS011;2411;47.060;15.064;2022-10-23T06:19:29;3.40;;;3.10;;
4794;SDS011;2411;47.060;15.064;2022-10-23T06:21:56;3.07;;;2.90;;
4794;SDS011;2411;47.060;15.064;2022-10-23T06:24:24;2.30;;;1.83;;
4794;SDS011;2411;47.060;15.064;2022-10-23T06:26:51;6.17;;;2.00;;
4794;SDS011;2411;47.060;15.064;2022-10-23T06:29:18;1.23;;;1.20;;
4794;SDS011;2411;47.060;15.064;2022-10-23T06:31:45;1.87;;;1.10;;
4794;SDS011;2411;47.060;15.064;2022-10-23T06:34:13;1.67;;;1.57;;
4794;SDS011;2411;47.060;15.064;2022-10-23T06:36:40;1.53;;;1.43;;
4794;SDS011;2411;47.060;15.064;2022-10-23T06:39:08;3.77;;;1.60;;
4794;SDS011;2411;47.060;15.064;2022-10-23T06:41:35;0.87;;;0.87;;
4794;SDS011;2411;47.060;15.064;2022-10-23T06:44:04;0.80;;;0.80;;
4794;SDS011;2411;47.060;15.064;2022-10-23T06:46:31;1.30;;;1.20;;
4794;SDS011;2411;47.060;15.064;2022-10-23T06:49:00;1.67;;;1.50;;
4794;SDS011;2411;47.060;15.064;2022-10-23T06:51:27;2.20;;;1.87;;
4794;SDS011;2411;47.060;15.064;2022-10-23T06:53:55;2.30;;;1.43;;
4794;SDS011;2411;47.060;15.064;2022-10-23T06:56:22;2.77;;;1.20;;
4794;SDS011;2411;47.060;15.064;2022-10-23T06:58:54;2.40;;;1.23;;
4794;SDS011;2411;47.060;15.064;2022-10-23T07:01:22;2.50;;;1.07;;
4794;SDS011;2411;47.060;15.064;2022-10-23T07:03:49;3.70;;;1.17;;
4794;SDS011;2411;47.060;15.064;2022-10-23T07:06:16;1.87;;;1.37;;
4794;SDS011;2411;47.060;15.064;2022-10-23T07:08:44;1.00;;;0.90;;
4794;SDS011;2411;47.060;15.064;2022-10-23T07:11:11;1.50;;;1.40;;
4794;SDS011;2411;47.060;15.064;2022-10-23T07:13:39;3.53;;;1.23;;
4794;SDS011;2411;47.060;15.064;2022-10-23T07:16:13;1.10;;;1.10;;
4794;SDS011;2411;47.060;15.064;2022-10-23T07:18:43;2.60;;;1.53;;
4794;SDS011;2411;47.060;15.064;2022-10-23T07:21:10;2.53;;;1.30;;
4794;SDS011;2411;47.060;15.064;2022-10-23T07:23:37;1.77;;;1.67;;
4794;SDS011;2411;47.060;15.064;2022-10-23T07:26:06;2.50;;;2.13;;
4794;SDS011;2411;47.060;15.064;2022-10-23T07:28:43;2.67;;;2.40;;
4794;SDS011;2411;47.060;15.064;2022-10-23T07:31:11;3.53;;;2.43;;
4794;SDS011;2411;47.060;15.064;2022-10-23T07:33:39;4.63;;;2.40;;
4794;SDS011;2411;47.060;15.064;2022-10-23T07:36:07;3.23;;;1.73;;
4794;SDS011;2411;47.060;15.064;2022-10-23T07:38:35;2.10;;;1.90;;
4794;SDS011;2411;47.060;15.064;2022-10-23T07:41:02;4.73;;;1.93;;
4794;SDS011;2411;47.060;15.064;2022-10-23T07:43:34;2.07;;;1.97;;
4794;SDS011;2411;47.060;15.064;2022-10-23T07:46:02;2.00;;;1.90;;
4794;SDS011;2411;47.060;15.064;2022-10-23T07:48:29;6.83;;;1.93;;
4794;SDS011;2411;47.060;15.064;2022-10-23T07:50:57;3.60;;;1.33;;
4794;SDS011;2411;47.060;15.064;2022-10-23T07:53:27;2.10;;;1.10;;
4794;SDS011;2411;47.060;15.064;2022-10-23T07:55:55;2.73;;;1.20;;
4794;SDS011;2411;47.060;15.064;2022-10-23T07:58:25;3.10;;;2.00;;
4794;SDS011;2411;47.060;15.064;2022-10-23T08:00:54;1.57;;;1.47;;
4794;SDS011;2411;47.060;15.064;2022-10-23T08:03:25;2.00;;;1.90;;
4794;SDS011;2411;47.060;15.064;2022-10-23T08:06:01;5.27;;;3.70;;
4794;SDS011;2411;47.060;15.064;2022-10-23T08:08:28;5.17;;;3.53;;
4794;SDS011;2411;47.060;15.064;2022-10-23T08:10:55;6.77;;;3.90;;
4794;SDS011;2411;47.060;15.064;2022-10-23T08:13:23;1.73;;;1.63;;
4794;SDS011;2411;47.060;15.064;2022-10-23T08:15:50;3.87;;;1.70;;
4794;SDS011;2411;47.060;15.064;2022-10-23T08:18:18;2.60;;;2.40;;
4794;SDS011;2411;47.060;15.064;2022-10-23T08:20:46;5.90;;;2.50;;
4794;SDS011;2411;47.060;15.064;2022-10-23T08:23:15;2.63;;;2.50;;
4794;SDS011;2411;47.060;15.064;2022-10-23T08:25:44;1.93;;;1.83;;
4794;SDS011;2411;47.060;15.064;2022-10-23T08:28:12;2.80;;;1.70;;
4794;SDS011;2411;47.060;15.064;2022-10-23T08:30:41;3.00;;;1.93;;
4794;SDS011;2411;47.060;15.064;2022-10-23T08:33:08;1.90;;;1.80;;
4794;SDS011;2411;47.060;15.064;2022-10-23T08:35:36;2.23;;;2.03;;
4794;SDS011;2411;47.060;15.064;2022-10-23T08:38:04;3.03;;;2.53;;
4794;SDS011;2411;47.060;15.064;2022-10-23T08:40:31;3.47;;;3.20;;
4794;SDS011;2411;47.060;15.064;2022-10-23T08:43:02;6.30;;;3.30;;
4794;SDS011;2411;47.060;15.064;2022-10-23T08:45:47;3.23;;;2.93;;
4794;SDS011;2411;47.060;15.064;2022-10-23T08:48:27;5.50;;;2.27;;
4794;SDS011;2411;47.060;15.064;2022-10-23T08:53:59;2.67;;;2.47;;
4794;SDS011;2411;47.060;15.064;2022-10-23T08:56:43;2.13;;;1.93;;
4794;SDS011;2411;47.060;15.064;2022-10-23T09:02:23;1.63;;;1.53;;
4794;SDS011;2411;47.060;15.064;2022-10-23T09:04:53;1.77;;;1.53;;
4794;SDS011;2411;47.060;15.064;2022-10-23T09:07:30;3.70;;;1.67;;
4794;SDS011;2411;47.060;15.064;2022-10-23T09:10:24;1.50;;;1.40;;
4794;SDS011;2411;47.060;15.064;2022-10-23T09:13:11;4.10;;;1.60;;
4794;SDS011;2411;47.060;15.064;2022-10-23T09:15:57;3.23;;;1.90;;
4794;SDS011;2411;47.060;15.064;2022-10-23T09:18:40;1.60;;;1.50;;
4794;SDS011;2411;47.060;15.064;2022-10-23T09:21:09;7.77;;;1.70;;
4794;SDS011;2411;47.060;15.064;2022-10-23T09:23:37;1.20;;;1.20;;
4794;SDS011;2411;47.060;15.064;2022-10-23T09:26:14;1.07;;;1.07;;
4794;SDS011;2411;47.060;15.064;2022-10-23T09:28:45;1.33;;;1.23;;
4794;SDS011;2411;47.060;15.064;2022-10-23T09:31:14;6.13;;;1.10;;
4794;SDS011;2411;47.060;15.064;2022-10-23T09:33:53;1.30;;;1.20;;
4794;SDS011;2411;47.060;15.064;2022-10-23T09:36:22;1.30;;;1.20;;
4794;SDS011;2411;47.060;15.064;2022-10-23T09:38:52;2.70;;;0.87;;
4794;SDS011;2411;47.060;15.064;2022-10-23T09:46:37;1.30;;;1.17;;
4794;SDS011;2411;47.060;15.064;2022-10-23T09:49:14;1.70;;;1.60;;
4794;SDS011;2411;47.060;15.064;2022-10-23T09:52:04;2.80;;;1.33;;
4794;SDS011;2411;47.060;15.064;2022-10-23T09:54:43;9.10;;;1.47;;
4794;SDS011;2411;47.060;15.064;2022-10-23T10:00:01;2.50;;;1.37;;
4794;SDS011;2411;47.060;15.064;2022-10-23T10:02:43;1.87;;;1.50;;
4794;SDS011;2411;47.060;15.064;2022-10-23T10:05:31;1.47;;;1.37;;
4794;SDS011;2411;47.060;15.064;2022-10-23T10:10:57;1.13;;;1.13;;
4794;SDS011;2411;47.060;15.064;2022-10-23T10:16:02;1.83;;;1.20;;
4794;SDS011;2411;47.060;15.064;2022-10-23T10:18:54;1.40;;;1.30;;
4794;SDS011;2411;47.060;15.064;2022-10-23T10:21:42;1.40;;;1.30;;
4794;SDS011;2411;47.060;15.064;2022-10-23T10:27:05;4.40;;;2.50;;
4794;SDS011;2411;47.060;15.064;2022-10-23T10:30:02;4.40;;;1.97;;
4794;SDS011;2411;47.060;15.064;2022-10-23T10:32:42;1.73;;;1.60;;
4794;SDS011;2411;47.060;15.064;2022-10-23T10:40:36;1.97;;;1.43;;
4794;SDS011;2411;47.060;15.064;2022-10-23T10:45:46;1.40;;;1.30;;
4794;SDS011;2411;47.060;15.064;2022-10-23T10:51:04;0.90;;;0.90;;
4794;SDS011;2411;47.060;15.064;2022-10-23T10:53:52;3.13;;;1.00;;
4794;SDS011;2411;47.060;15.064;2022-10-23T10:56:25;0.90;;;0.90;;
4794;SDS011;2411;47.060;15.064;2022-10-23T10:59:56;1.43;;;1.17;;
4794;SDS011;2411;47.060;15.064;2022-10-23T11:07:20;1.20;;;1.03;;
4794;SDS011;2411;47.060;15.064;2022-10-23T11:09:50;1.10;;;1.00;;
4794;SDS011;2411;47.060;15.064;2022-10-23T11:12:23;1.43;;;0.90;;
4794;SDS011;2411;47.060;15.064;2022-10-23T11:14:52;1.77;;;0.97;;
4794;SDS011;2411;47.060;15.064;2022-10-23T11:17:43;1.30;;;1.10;;
4794;SDS011;2411;47.060;15.064;2022-10-23T11:26:08;1.13;;;1.00;;
4794;SDS011;2411;47.060;15.064;2022-10-23T11:37:34;1.40;;;1.10;;
4794;SDS011;2411;47.060;15.064;2022-10-23T11:40:11;1.00;;;1.00;;
4794;SDS011;2411;47.060;15.064;2022-10-23T11:42:48;1.30;;;1.20;;
4794;SDS011;2411;47.060;15.064;2022-10-23T11:47:56;1.37;;;1.10;;
4794;SDS011;2411;47.060;15.064;2022-10-23T11:54:03;1.13;;;1.13;;
4794;SDS011;2411;47.060;15.064;2022-10-23T11:55:58;3.67;;;1.50;;
4794;SDS011;2411;47.060;15.064;2022-10-23T11:58:27;10.57;;;1.63;;
4794;SDS011;2411;47.060;15.064;2022-10-23T12:01:27;1.37;;;1.27;;
4794;SDS011;2411;47.060;15.064;2022-10-23T12:06:46;8.63;;;1.17;;
4794;SDS011;2411;47.060;15.064;2022-10-23T12:09:26;6.33;;;1.03;;
4794;SDS011;2411;47.060;15.064;2022-10-23T12:12:03;1.30;;;1.27;;
4794;SDS011;2411;47.060;15.064;2022-10-23T12:19:54;1.70;;;1.60;;
4794;SDS011;2411;47.060;15.064;2022-10-23T12:22:31;2.63;;;1.60;;
4794;SDS011;2411;47.060;15.064;2022-10-23T12:28:13;2.30;;;1.00;;
4794;SDS011;2411;47.060;15.064;2022-10-23T12:41:53;1.53;;;1.23;;
4794;SDS011;2411;47.060;15.064;2022-10-23T12:44:20;1.33;;;1.27;;
4794;SDS011;2411;47.060;15.064;2022-10-23T12:46:53;1.93;;;1.30;;
4794;SDS011;2411;47.060;15.064;2022-10-23T12:49:23;7.83;;;1.70;;
4794;SDS011;2411;47.060;15.064;2022-10-23T12:52:26;1.10;;;1.10;;
4794;SDS011;2411;47.060;15.064;2022-10-23T12:54:46;2.10;;;1.37;;
4794;SDS011;2411;47.060;15.064;2022-10-23T12:57:18;1.87;;;1.63;;
4794;SDS011;2411;47.060;15.064;2022-10-23T12:59:57;3.10;;;1.30;;
4794;SDS011;2411;47.060;15.064;2022-10-23T13:02:31;3.70;;;1.10;;
4794;SDS011;2411;47.060;15.064;2022-10-23T13:04:59;1.63;;;1.07;;
4794;SDS011;2411;47.060;15.064;2022-10-23T13:07:32;3.50;;;1.10;;
4794;SDS011;2411;47.060;15.064;2022-10-23T13:10:03;1.53;;;1.43;;
4794;SDS011;2411;47.060;15.064;2022-10-23T13:12:31;1.40;;;1.30;;
4794;SDS011;2411;47.060;15.064;2022-10-23T13:17:41;1.20;;;1.10;;
4794;SDS011;2411;47.060;15.064;2022-10-23T13:22:44;7.63;;;1.30;;
4794;SDS011;2411;47.060;15.064;2022-10-23T13:25:23;2.47;;;1.30;;
4794;SDS011;2411;47.060;15.064;2022-10-23T13:33:30;1.30;;;1.20;;
4794;SDS011;2411;47.060;15.064;2022-10-23T13:36:01;3.20;;;1.10;;
4794;SDS011;2411;47.060;15.064;2022-10-23T13:38:46;1.83;;;1.10;;
4794;SDS011;2411;47.060;15.064;2022-10-23T13:41:40;1.10;;;1.10;;
4794;SDS011;2411;47.060;15.064;2022-10-23T13:44:12;2.47;;;1.07;;
4794;SDS011;2411;47.060;15.064;2022-10-23T13:46:42;3.00;;;1.50;;
4794;SDS011;2411;47.060;15.064;2022-10-23T13:49:09;3.90;;;1.67;;
4794;SDS011;2411;47.060;15.064;2022-10-23T13:51:43;1.47;;;1.23;;
4794;SDS011;2411;47.060;15.064;2022-10-23T13:54:14;1.40;;;1.20;;
4794;SDS011;2411;47.060;15.064;2022-10-23T13:56:43;3.00;;;1.10;;
4794;SDS011;2411;47.060;15.064;2022-10-23T13:59:11;1.20;;;0.90;;
4794;SDS011;2411;47.060;15.064;2022-10-23T14:01:38;1.53;;;1.43;;
4794;SDS011;2411;47.060;15.064;2022-10-23T14:04:06;2.70;;;1.10;;
4794;SDS011;2411;47.060;15.064;2022-10-23T14:06:34;6.00;;;1.20;;
4794;SDS011;2411;47.060;15.064;2022-10-23T14:09:03;1.00;;;1.00;;
4794;SDS011;2411;47.060;15.064;2022-10-23T14:11:32;3.90;;;1.50;;
4794;SDS011;2411;47.060;15.064;2022-10-23T14:14:00;2.40;;;1.47;;
4794;SDS011;2411;47.060;15.064;2022-10-23T14:16:27;1.53;;;1.33;;
4794;SDS011;2411;47.060;15.064;2022-10-23T14:18:55;1.73;;;1.10;;
4794;SDS011;2411;47.060;15.064;2022-10-23T14:21:22;1.30;;;1.20;;
4794;SDS011;2411;47.060;15.064;2022-10-23T14:23:51;2.17;;;2.07;;
4794;SDS011;2411;47.060;15.064;2022-10-23T14:26:20;2.30;;;2.10;;
4794;SDS011;2411;47.060;15.064;2022-10-23T14:28:53;1.40;;;1.30;;
4794;SDS011;2411;47.060;15.064;2022-10-23T14:31:21;1.13;;;0.90;;
4794;SDS011;2411;47.060;15.064;2022-10-23T14:33:53;2.63;;;2.43;;
4794;SDS011;2411;47.060;15.064;2022-10-23T14:36:21;2.93;;;2.77;;
4794;SDS011;2411;47.060;15.064;2022-10-23T14:38:49;1.67;;;1.57;;
4794;SDS011;2411;47.060;15.064;2022-10-23T14:41:21;2.87;;;1.53;;
4794;SDS011;2411;47.060;15.064;2022-10-23T14:43:49;3.13;;;1.57;;
4794;SDS011;2411;47.060;15.064;2022-10-23T14:46:20;4.83;;;1.67;;
4794;SDS011;2411;47.060;15.064;2022-10-23T14:48:48;3.90;;;1.93;;
4794;SDS011;2411;47.060;15.064;2022-10-23T14:51:23;2.63;;;2.13;;
4794;SDS011;2411;47.060;15.064;2022-10-23T14:53:55;5.90;;;2.00;;
4794;SDS011;2411;47.060;15.064;2022-10-23T14:56:25;2.80;;;2.53;;
4794;SDS011;2411;47.060;15.064;2022-10-23T14:58:53;2.70;;;2.20;;
4794;SDS011;2411;47.060;15.064;2022-10-23T15:01:20;1.93;;;1.70;;
4794;SDS011;2411;47.060;15.064;2022-10-23T15:03:48;2.03;;;1.83;;
4794;SDS011;2411;47.060;15.064;2022-10-23T15:06:20;2.90;;;1.83;;
4794;SDS011;2411;47.060;15.064;2022-10-23T15:08:50;3.30;;;3.00;;
4794;SDS011;2411;47.060;15.064;2022-10-23T15:11:21;4.90;;;4.50;;
4794;SDS011;2411;47.060;15.064;2022-10-23T15:13:49;4.20;;;3.73;;
4794;SDS011;2411;47.060;15.064;2022-10-23T15:16:17;3.30;;;2.90;;
4794;SDS011;2411;47.060;15.064;2022-10-23T15:18:44;10.50;;;8.47;;
4794;SDS011;2411;47.060;15.064;2022-10-23T15:21:11;7.30;;;3.20;;
4794;SDS011;2411;47.060;15.064;2022-10-23T15:23:40;4.23;;;3.40;;
4794;SDS011;2411;47.060;15.064;2022-10-23T15:26:11;2.90;;;2.70;;
4794;SDS011;2411;47.060;15.064;2022-10-23T15:28:45;2.20;;;2.10;;
4794;SDS011;2411;47.060;15.064;2022-10-23T15:33:56;3.10;;;2.50;;
4794;SDS011;2411;47.060;15.064;2022-10-23T15:36:24;2.70;;;2.30;;
4794;SDS011;2411;47.060;15.064;2022-10-23T15:38:51;3.60;;;2.10;;
4794;SDS011;2411;47.060;15.064;2022-10-23T15:41:32;7.10;;;2.03;;
4794;SDS011;2411;47.060;15.064;2022-10-23T15:44:00;3.90;;;2.53;;
4794;SDS011;2411;47.060;15.064;2022-10-23T15:46:28;3.20;;;1.90;;
4794;SDS011;2411;47.060;15.064;2022-10-23T15:48:56;3.50;;;2.53;;
4794;SDS011;2411;47.060;15.064;2022-10-23T15:51:23;6.20;;;2.90;;
4794;SDS011;2411;47.060;15.064;2022-10-23T15:53:50;2.93;;;2.73;;
4794;SDS011;2411;47.060;15.064;2022-10-23T15:56:18;8.17;;;3.93;;
4794;SDS011;2411;47.060;15.064;2022-10-23T15:58:45;4.20;;;3.80;;
4794;SDS011;2411;47.060;15.064;2022-10-23T16:01:12;16.43;;;4.77;;
4794;SDS011;2411;47.060;15.064;2022-10-23T16:03:40;2.77;;;2.57;;
4794;SDS011;2411;47.060;15.064;2022-10-23T16:06:09;5.40;;;2.50;;
4794;SDS011;2411;47.060;15.064;2022-10-23T16:08:38;2.30;;;2.10;;
4794;SDS011;2411;47.060;15.064;2022-10-23T16:11:11;2.67;;;2.47;;
4794;SDS011;2411;47.060;15.064;2022-10-23T16:13:50;6.63;;;3.50;;
4794;SDS011;2411;47.060;15.064;2022-10-23T16:16:17;3.93;;;2.57;;
4794;SDS011;2411;47.060;15.064;2022-10-23T16:18:44;11.30;;;3.30;;
4794;SDS011;2411;47.060;15.064;2022-10-23T16:21:16;2.70;;;2.50;;
4794;SDS011;2411;47.060;15.064;2022-10-23T16:23:44;3.97;;;2.53;;
4794;SDS011;2411;47.060;15.064;2022-10-23T16:26:12;3.00;;;2.80;;
4794;SDS011;2411;47.060;15.064;2022-10-23T16:28:40;4.13;;;2.70;;
4794;SDS011;2411;47.060;15.064;2022-10-23T16:31:16;3.70;;;3.40;;
4794;SDS011;2411;47.060;15.064;2022-10-23T16:33:46;2.60;;;2.40;;
4794;SDS011;2411;47.060;15.064;2022-10-23T16:36:14;6.40;;;2.40;;
4794;SDS011;2411;47.060;15.064;2022-10-23T16:38:42;8.73;;;3.37;;
4794;SDS011;2411;47.060;15.064;2022-10-23T16:41:09;6.10;;;3.67;;
4794;SDS011;2411;47.060;15.064;2022-10-23T16:43:36;18.33;;;14.40;;
4794;SDS011;2411;47.060;15.064;2022-10-23T16:46:13;18.93;;;14.60;;
4794;SDS011;2411;47.060;15.064;2022-10-23T16:48:43;10.30;;;4.00;;
4794;SDS011;2411;47.060;15.064;2022-10-23T16:51:14;9.23;;;4.33;;
4794;SDS011;2411;47.060;15.064;2022-10-23T16:53:43;12.50;;;7.93;;
4794;SDS011;2411;47.060;15.064;2022-10-23T16:56:12;6.50;;;5.80;;
4794;SDS011;2411;47.060;15.064;2022-10-23T16:58:41;10.27;;;7.50;;
4794;SDS011;2411;47.060;15.064;2022-10-23T17:01:10;5.33;;;3.97;;
4794;SDS011;2411;47.060;15.064;2022-10-23T17:03:42;6.17;;;5.67;;
4794;SDS011;2411;47.060;15.064;2022-10-23T17:06:14;4.43;;;3.30;;
4794;SDS011;2411;47.060;15.064;2022-10-23T17:08:43;10.83;;;3.50;;
4794;SDS011;2411;47.060;15.064;2022-10-23T17:11:12;5.60;;;3.80;;
4794;SDS011;2411;47.060;15.064;2022-10-23T17:13:43;7.90;;;4.67;;
4794;SDS011;2411;47.060;15.064;2022-10-23T17:18:39;9.53;;;4.87;;
4794;SDS011;2411;47.060;15.064;2022-10-23T17:21:10;8.57;;;6.70;;
4794;SDS011;2411;47.060;15.064;2022-10-23T17:23:38;10.67;;;5.17;;
4794;SDS011;2411;47.060;15.064;2022-10-23T17:26:07;5.83;;;4.97;;
4794;SDS011;2411;47.060;15.064;2022-10-23T17:28:37;7.70;;;5.20;;
4794;SDS011;2411;47.060;15.064;2022-10-23T17:31:14;11.23;;;5.60;;
4794;SDS011;2411;47.060;15.064;2022-10-23T17:33:50;10.80;;;6.70;;
4794;SDS011;2411;47.060;15.064;2022-10-23T17:36:20;4.50;;;3.30;;
4794;SDS011;2411;47.060;15.064;2022-10-23T17:38:48;7.00;;;3.40;;